sensor_id;sensor_type;location;lat;lon;timestamp;pressure;altitude;pressure_sealevel;temperature;humidity
10688;BME280;5392;42.688;23.298;2022-08-11T00:01:23;57288.19;;;-144.48;100.00
10688;BME280;5392;42.688;23.298;2022-08-11T00:03:54;57292.38;;;-144.48;100.00
10688;BME280;5392;42.688;23.298;2022-08-11T00:06:30;57271.50;;;-144.48;100.00
10688;BME280;5392;42.688;23.298;2022-08-11T00:08:59;57321.59;;;-144.48;100.00
10688;BME280;5392;42.688;23.298;2022-08-11T00:14:04;57317.41;;;-144.48;100.00
10688;BME280;5392;42.688;23.298;2022-08-11T00:16:39;57288.19;;;-144.48;100.00
10688;BME280;5392;42.688;23.298;2022-08-11T00:19:08;57275.66;;;-144.48;100.00
10688;BME280;5392;42.688;23.298;2022-08-11T00:21:40;57327.84;;;-144.48;100.00
10688;BME280;5392;42.688;23.298;2022-08-11T00:24:36;57325.75;;;-144.48;100.00
10688;BME280;5392;42.688;23.298;2022-08-11T00:27:30;57306.97;;;-144.48;100.00
10688;BME280;5392;42.688;23.298;2022-08-11T00:29:57;57275.66;;;-144.48;100.00
10688;BME280;5392;42.688;23.298;2022-08-11T00:32:24;57327.84;;;-144.48;100.00
10688;BME280;5392;42.688;23.298;2022-08-11T00:34:53;57265.22;;;-144.48;100.00
10688;BME280;5392;42.688;23.298;2022-08-11T00:37:47;57261.06;;;-144.48;100.00
10688;BME280;5392;42.688;23.298;2022-08-11T00:40:24;57315.31;;;-144.48;100.00
10688;BME280;5392;42.688;23.298;2022-08-11T00:48:59;57329.94;;;-144.48;100.00
10688;BME280;5392;42.688;23.298;2022-08-11T00:51:47;57315.31;;;-144.48;100.00
10688;BME280;5392;42.688;23.298;2022-08-11T00:55:02;57292.38;;;-144.48;100.00
10688;BME280;5392;42.688;23.298;2022-08-11T01:00:11;57336.19;;;-144.48;100.00
10688;BME280;5392;42.688;23.298;2022-08-11T01:54:27;57296.53;;;-144.48;100.00
10688;BME280;5392;42.688;23.298;2022-08-11T01:57:35;57298.63;;;-144.48;100.00
10688;BME280;5392;42.688;23.298;2022-08-11T02:00:08;57302.81;;;-144.48;100.00
10688;BME280;5392;42.688;23.298;2022-08-11T02:22:56;57329.94;;;-144.48;100.00
10688;BME280;5392;42.688;23.298;2022-08-11T02:26:22;57338.28;;;-144.48;100.00
10688;BME280;5392;42.688;23.298;2022-08-11T02:35:04;57346.63;;;-144.48;100.00
10688;BME280;5392;42.688;23.298;2022-08-11T02:40:49;57346.63;;;-144.48;100.00
10688;BME280;5392;42.688;23.298;2022-08-11T02:43:43;57325.75;;;-144.48;100.00
10688;BME280;5392;42.688;23.298;2022-08-11T02:46:36;57325.75;;;-144.48;100.00
10688;BME280;5392;42.688;23.298;2022-08-11T02:49:18;57313.22;;;-144.48;100.00
10688;BME280;5392;42.688;23.298;2022-08-11T02:52:30;57290.28;;;-144.48;100.00
10688;BME280;5392;42.688;23.298;2022-08-11T03:00:58;57329.94;;;-144.48;100.00
10688;BME280;5392;42.688;23.298;2022-08-11T03:03:59;57313.22;;;-144.48;100.00
10688;BME280;5392;42.688;23.298;2022-08-11T03:09:08;57346.63;;;-144.48;100.00
10688;BME280;5392;42.688;23.298;2022-08-11T03:12:12;57306.97;;;-144.48;100.00
10688;BME280;5392;42.688;23.298;2022-08-11T03:15:02;57321.59;;;-144.48;100.00
10688;BME280;5392;42.688;23.298;2022-08-11T03:18:17;57315.31;;;-144.48;100.00
10688;BME280;5392;42.688;23.298;2022-08-11T03:20:58;57344.53;;;-144.48;100.00
10688;BME280;5392;42.688;23.298;2022-08-11T03:23:34;57263.16;;;-144.48;100.00
10688;BME280;5392;42.688;23.298;2022-08-11T03:26:43;57354.97;;;-144.48;100.00
10688;BME280;5392;42.688;23.298;2022-08-11T03:32:21;57321.59;;;-144.48;100.00
10688;BME280;5392;42.688;23.298;2022-08-11T03:34:51;57329.94;;;-144.48;100.00
10688;BME280;5392;42.688;23.298;2022-08-11T03:46:55;57325.75;;;-144.48;100.00
10688;BME280;5392;42.688;23.298;2022-08-11T03:52:22;57325.75;;;-144.48;100.00
10688;BME280;5392;42.688;23.298;2022-08-11T04:07:42;57277.75;;;-144.48;79.92
10688;BME280;5392;42.688;23.298;2022-08-11T04:22:22;57277.75;;;-144.48;62.03
10688;BME280;5392;42.688;23.298;2022-08-11T04:25:42;57288.19;;;-144.48;62.69
10688;BME280;5392;42.688;23.298;2022-08-11T04:33:57;57252.72;;;-144.48;48.07
10688;BME280;5392;42.688;23.298;2022-08-11T04:36:36;57256.88;;;-144.48;45.09
10688;BME280;5392;42.688;23.298;2022-08-11T04:39:43;57227.66;;;-144.48;42.97
10688;BME280;5392;42.688;23.298;2022-08-11T05:04:39;57194.25;;;-144.48;39.14
10688;BME280;5392;42.688;23.298;2022-08-11T05:12:52;57225.56;;;-144.48;38.75
10688;BME280;5392;42.688;23.298;2022-08-11T05:15:46;57219.31;;;-144.48;37.76
10688;BME280;5392;42.688;23.298;2022-08-11T05:18:33;57248.53;;;-144.48;37.12
10688;BME280;5392;42.688;23.298;2022-08-11T05:21:21;57227.66;;;-144.48;38.09
10688;BME280;5392;42.688;23.298;2022-08-11T05:24:16;57225.56;;;-144.48;36.45
10688;BME280;5392;42.688;23.298;2022-08-11T05:27:06;57238.09;;;-144.48;35.73
10688;BME280;5392;42.688;23.298;2022-08-11T05:30:11;57231.84;;;-144.48;35.98
10688;BME280;5392;42.688;23.298;2022-08-11T05:33:14;57246.44;;;-144.48;36.70
10688;BME280;5392;42.688;23.298;2022-08-11T05:36:19;57248.53;;;-144.48;37.14
10688;BME280;5392;42.688;23.298;2022-08-11T05:39:02;57223.50;;;-144.48;36.96
10688;BME280;5392;42.688;23.298;2022-08-11T05:42:04;57229.75;;;-144.48;35.37
10688;BME280;5392;42.688;23.298;2022-08-11T05:45:13;57213.06;;;-144.48;34.30
10688;BME280;5392;42.688;23.298;2022-08-11T05:48:20;57206.78;;;-144.48;33.27
10688;BME280;5392;42.688;23.298;2022-08-11T05:51:06;57169.22;;;-144.48;31.92
10688;BME280;5392;42.688;23.298;2022-08-11T05:53:58;57192.19;;;-144.48;30.82
10688;BME280;5392;42.688;23.298;2022-08-11T05:56:58;57192.19;;;-144.48;30.18
10688;BME280;5392;42.688;23.298;2022-08-11T05:59:27;57146.25;;;-144.48;30.41
10688;BME280;5392;42.688;23.298;2022-08-11T06:02:03;57204.69;;;-144.48;30.35
10688;BME280;5392;42.688;23.298;2022-08-11T06:04:31;57192.19;;;-144.48;29.97
10688;BME280;5392;42.688;23.298;2022-08-11T06:07:06;57154.59;;;-144.48;30.47
10688;BME280;5392;42.688;23.298;2022-08-11T06:09:35;57165.03;;;-144.48;30.31
10688;BME280;5392;42.688;23.298;2022-08-11T06:12:10;57196.34;;;-144.48;30.13
10688;BME280;5392;42.688;23.298;2022-08-11T06:14:43;57150.44;;;-144.48;29.50
10688;BME280;5392;42.688;23.298;2022-08-11T06:17:12;57213.06;;;-144.48;30.47
10688;BME280;5392;42.688;23.298;2022-08-11T06:19:46;57208.88;;;-144.48;29.81
10688;BME280;5392;42.688;23.298;2022-08-11T06:22:19;57188.00;;;-144.48;29.77
10688;BME280;5392;42.688;23.298;2022-08-11T06:24:56;57181.75;;;-144.48;29.59
10688;BME280;5392;42.688;23.298;2022-08-11T06:27:25;57188.00;;;-144.48;29.69
10688;BME280;5392;42.688;23.298;2022-08-11T06:29:53;57183.84;;;-144.48;28.82
10688;BME280;5392;42.688;23.298;2022-08-11T06:32:31;57148.34;;;-144.48;28.23
10688;BME280;5392;42.688;23.298;2022-08-11T06:42:56;57154.59;;;-144.48;27.49
10688;BME280;5392;42.688;23.298;2022-08-11T06:45:50;57162.97;;;-144.48;27.73
10688;BME280;5392;42.688;23.298;2022-08-11T07:02:52;57208.88;;;-144.48;29.94
10688;BME280;5392;42.688;23.298;2022-08-11T07:05:30;57244.34;;;-144.48;31.43
10688;BME280;5392;42.688;23.298;2022-08-11T07:14:37;57248.53;;;-144.48;30.01
10688;BME280;5392;42.688;23.298;2022-08-11T07:17:27;57200.53;;;-144.48;30.31
10688;BME280;5392;42.688;23.298;2022-08-11T07:19:59;57240.19;;;-144.48;29.76
10688;BME280;5392;42.688;23.298;2022-08-11T07:22:53;57269.41;;;-144.48;30.94
10688;BME280;5392;42.688;23.298;2022-08-11T07:25:42;57238.09;;;-144.48;31.36
10688;BME280;5392;42.688;23.298;2022-08-11T07:28:29;57227.66;;;-144.48;32.66
10688;BME280;5392;42.688;23.298;2022-08-11T07:31:26;57221.41;;;-144.48;31.47
10688;BME280;5392;42.688;23.298;2022-08-11T07:36:49;57204.69;;;-144.48;29.73
10688;BME280;5392;42.688;23.298;2022-08-11T07:39:41;57213.06;;;-144.48;30.55
10688;BME280;5392;42.688;23.298;2022-08-11T07:42:09;57250.63;;;-144.48;30.93
10688;BME280;5392;42.688;23.298;2022-08-11T07:44:39;57221.41;;;-144.48;30.63
10688;BME280;5392;42.688;23.298;2022-08-11T07:47:28;57208.88;;;-144.48;28.71
10688;BME280;5392;42.688;23.298;2022-08-11T07:50:14;57144.19;;;-144.48;28.65
10688;BME280;5392;42.688;23.298;2022-08-11T07:53:01;57229.75;;;-144.48;28.59
10688;BME280;5392;42.688;23.298;2022-08-11T07:55:29;57202.63;;;-144.48;27.76
10688;BME280;5392;42.688;23.298;2022-08-11T07:58:19;57221.41;;;-144.48;27.94
10688;BME280;5392;42.688;23.298;2022-08-11T08:01:19;57240.19;;;-144.48;28.57
10688;BME280;5392;42.688;23.298;2022-08-11T08:04:08;57188.00;;;-144.48;28.30
10688;BME280;5392;42.688;23.298;2022-08-11T08:06:55;57206.78;;;-144.48;29.03
10688;BME280;5392;42.688;23.298;2022-08-11T08:09:42;57219.31;;;-144.48;29.40
10688;BME280;5392;42.688;23.298;2022-08-11T08:12:28;57190.09;;;-144.48;28.54
10688;BME280;5392;42.688;23.298;2022-08-11T08:15:16;57188.00;;;-144.48;28.18
10688;BME280;5392;42.688;23.298;2022-08-11T08:18:03;57208.88;;;-144.48;27.68
10688;BME280;5392;42.688;23.298;2022-08-11T08:20:51;57179.66;;;-144.48;27.58
10688;BME280;5392;42.688;23.298;2022-08-11T08:23:22;57179.66;;;-144.48;27.64
10688;BME280;5392;42.688;23.298;2022-08-11T08:26:03;57150.44;;;-144.48;27.15
10688;BME280;5392;42.688;23.298;2022-08-11T08:28:43;57146.25;;;-144.48;26.87
10688;BME280;5392;42.688;23.298;2022-08-11T08:31:12;57177.56;;;-144.48;26.53
10688;BME280;5392;42.688;23.298;2022-08-11T08:33:41;57192.19;;;-144.48;26.70
10688;BME280;5392;42.688;23.298;2022-08-11T08:36:09;57190.09;;;-144.48;27.93
10688;BME280;5392;42.688;23.298;2022-08-11T08:41:09;57223.50;;;-144.48;29.52
10688;BME280;5392;42.688;23.298;2022-08-11T08:43:39;57233.91;;;-144.48;28.84
10688;BME280;5392;42.688;23.298;2022-08-11T08:46:18;57240.19;;;-144.48;28.67
10688;BME280;5392;42.688;23.298;2022-08-11T08:48:47;57204.69;;;-144.48;29.19
10688;BME280;5392;42.688;23.298;2022-08-11T08:51:19;57179.66;;;-144.48;29.49
10688;BME280;5392;42.688;23.298;2022-08-11T08:54:22;57225.56;;;-144.48;29.08
10688;BME280;5392;42.688;23.298;2022-08-11T08:56:53;57210.97;;;-144.48;29.35
10688;BME280;5392;42.688;23.298;2022-08-11T08:59:23;57236.00;;;-144.48;29.05
10688;BME280;5392;42.688;23.298;2022-08-11T09:02:00;57225.56;;;-144.48;29.03
10688;BME280;5392;42.688;23.298;2022-08-11T09:04:28;57229.75;;;-144.48;29.53
10688;BME280;5392;42.688;23.298;2022-08-11T09:06:59;57227.66;;;-144.48;29.88
10688;BME280;5392;42.688;23.298;2022-08-11T09:09:28;57242.28;;;-144.48;31.99
10688;BME280;5392;42.688;23.298;2022-08-11T09:11:57;57271.50;;;-144.48;33.20
10688;BME280;5392;42.688;23.298;2022-08-11T09:14:36;57244.34;;;-144.48;34.79
10688;BME280;5392;42.688;23.298;2022-08-11T09:17:51;57332.03;;;-144.48;36.14
10688;BME280;5392;42.688;23.298;2022-08-11T09:20:21;57279.84;;;-144.48;36.23
10688;BME280;5392;42.688;23.298;2022-08-11T09:22:55;57302.81;;;-144.48;37.63
10688;BME280;5392;42.688;23.298;2022-08-11T09:26:01;57281.94;;;-144.48;35.84
10688;BME280;5392;42.688;23.298;2022-08-11T09:28:46;57265.22;;;-144.48;35.96
10688;BME280;5392;42.688;23.298;2022-08-11T09:31:15;57263.16;;;-144.48;34.69
10688;BME280;5392;42.688;23.298;2022-08-11T09:33:43;57267.31;;;-144.48;32.84
10688;BME280;5392;42.688;23.298;2022-08-11T09:36:12;57229.75;;;-144.48;31.61
10688;BME280;5392;42.688;23.298;2022-08-11T09:38:58;57250.63;;;-144.48;30.40
10688;BME280;5392;42.688;23.298;2022-08-11T09:41:45;57210.97;;;-144.48;29.86
10688;BME280;5392;42.688;23.298;2022-08-11T09:44:30;57231.84;;;-144.48;29.35
10688;BME280;5392;42.688;23.298;2022-08-11T09:47:28;57225.56;;;-144.48;29.04
10688;BME280;5392;42.688;23.298;2022-08-11T09:49:58;57242.28;;;-144.48;30.03
10688;BME280;5392;42.688;23.298;2022-08-11T09:52:34;57240.19;;;-144.48;31.40
10688;BME280;5392;42.688;23.298;2022-08-11T09:55:02;57258.97;;;-144.48;32.32
10688;BME280;5392;42.688;23.298;2022-08-11T09:57:31;57275.66;;;-144.48;33.57
10688;BME280;5392;42.688;23.298;2022-08-11T10:00:17;57288.19;;;-144.48;34.01
10688;BME280;5392;42.688;23.298;2022-08-11T10:02:46;57271.50;;;-144.48;34.35
10688;BME280;5392;42.688;23.298;2022-08-11T10:05:17;57265.22;;;-144.48;33.39
10688;BME280;5392;42.688;23.298;2022-08-11T10:08:04;57254.78;;;-144.48;32.75
10688;BME280;5392;42.688;23.298;2022-08-11T10:10:37;57256.88;;;-144.48;32.49
10688;BME280;5392;42.688;23.298;2022-08-11T10:13:07;57279.84;;;-144.48;34.04
10688;BME280;5392;42.688;23.298;2022-08-11T10:15:57;57284.00;;;-144.48;35.40
10688;BME280;5392;42.688;23.298;2022-08-11T10:18:43;57258.97;;;-144.48;36.13
10688;BME280;5392;42.688;23.298;2022-08-11T10:21:42;57261.06;;;-144.48;37.25
10688;BME280;5392;42.688;23.298;2022-08-11T10:24:31;57279.84;;;-144.48;37.15
10688;BME280;5392;42.688;23.298;2022-08-11T10:27:17;57281.94;;;-144.48;37.17
10688;BME280;5392;42.688;23.298;2022-08-11T10:29:44;57300.72;;;-144.48;36.01
10688;BME280;5392;42.688;23.298;2022-08-11T10:32:32;57265.22;;;-144.48;35.36
10688;BME280;5392;42.688;23.298;2022-08-11T10:35:27;57275.66;;;-144.48;34.61
10688;BME280;5392;42.688;23.298;2022-08-11T10:37:55;57267.31;;;-144.48;33.56
10688;BME280;5392;42.688;23.298;2022-08-11T10:40:37;57277.75;;;-144.48;35.06
10688;BME280;5392;42.688;23.298;2022-08-11T10:43:05;57275.66;;;-144.48;34.06
10688;BME280;5392;42.688;23.298;2022-08-11T10:45:37;57261.06;;;-144.48;33.31
10688;BME280;5392;42.688;23.298;2022-08-11T10:48:25;57277.75;;;-144.48;33.37
10688;BME280;5392;42.688;23.298;2022-08-11T10:50:53;57252.72;;;-144.48;33.87
10688;BME280;5392;42.688;23.298;2022-08-11T10:53:42;57309.06;;;-144.48;34.90
10688;BME280;5392;42.688;23.298;2022-08-11T10:56:30;57254.78;;;-144.48;34.49
10688;BME280;5392;42.688;23.298;2022-08-11T10:59:17;57254.78;;;-144.48;33.81
10688;BME280;5392;42.688;23.298;2022-08-11T11:01:44;57248.53;;;-144.48;32.91
10688;BME280;5392;42.688;23.298;2022-08-11T11:04:23;57248.53;;;-144.48;32.24
10688;BME280;5392;42.688;23.298;2022-08-11T11:07:16;57208.88;;;-144.48;31.90
10688;BME280;5392;42.688;23.298;2022-08-11T11:10:00;57256.88;;;-144.48;32.84
10688;BME280;5392;42.688;23.298;2022-08-11T11:15:21;57242.28;;;-144.48;33.22
10688;BME280;5392;42.688;23.298;2022-08-11T11:18:16;57244.34;;;-144.48;33.52
10688;BME280;5392;42.688;23.298;2022-08-11T11:20:58;57256.88;;;-144.48;33.34
10688;BME280;5392;42.688;23.298;2022-08-11T11:23:40;57263.16;;;-144.48;32.69
10688;BME280;5392;42.688;23.298;2022-08-11T11:37:45;57300.72;;;-144.48;33.08
10688;BME280;5392;42.688;23.298;2022-08-11T11:40:31;57275.66;;;-144.48;33.04
10688;BME280;5392;42.688;23.298;2022-08-11T11:42:59;57250.63;;;-144.48;32.10
10688;BME280;5392;42.688;23.298;2022-08-11T11:45:26;57250.63;;;-144.48;31.96
10688;BME280;5392;42.688;23.298;2022-08-11T11:47:55;57258.97;;;-144.48;31.37
10688;BME280;5392;42.688;23.298;2022-08-11T11:50:43;57250.63;;;-144.48;30.72
10688;BME280;5392;42.688;23.298;2022-08-11T11:53:11;57213.06;;;-144.48;30.89
10688;BME280;5392;42.688;23.298;2022-08-11T11:55:38;57269.41;;;-144.48;31.56
10688;BME280;5392;42.688;23.298;2022-08-11T11:58:05;57242.28;;;-144.48;31.45
10688;BME280;5392;42.688;23.298;2022-08-11T12:00:54;57233.91;;;-144.48;31.26
10688;BME280;5392;42.688;23.298;2022-08-11T12:03:39;57261.06;;;-144.48;31.55
10688;BME280;5392;42.688;23.298;2022-08-11T12:06:08;57238.09;;;-144.48;31.09
10688;BME280;5392;42.688;23.298;2022-08-11T12:08:39;57229.75;;;-144.48;31.02
10688;BME280;5392;42.688;23.298;2022-08-11T12:11:09;57215.13;;;-144.48;31.92
10688;BME280;5392;42.688;23.298;2022-08-11T12:13:58;57238.09;;;-144.48;33.91
10688;BME280;5392;42.688;23.298;2022-08-11T12:16:26;57265.22;;;-144.48;34.60
10688;BME280;5392;42.688;23.298;2022-08-11T12:19:03;57236.00;;;-144.48;35.52
10688;BME280;5392;42.688;23.298;2022-08-11T12:21:31;57248.53;;;-144.48;36.89
10688;BME280;5392;42.688;23.298;2022-08-11T12:24:00;57265.22;;;-144.48;37.22
10688;BME280;5392;42.688;23.298;2022-08-11T12:27:04;57263.16;;;-144.48;37.45
10688;BME280;5392;42.688;23.298;2022-08-11T12:29:56;57240.19;;;-144.48;37.05
10688;BME280;5392;42.688;23.298;2022-08-11T12:32:27;57254.78;;;-144.48;37.07
10688;BME280;5392;42.688;23.298;2022-08-11T12:34:55;57246.44;;;-144.48;37.74
10688;BME280;5392;42.688;23.298;2022-08-11T12:37:29;57294.44;;;-144.48;39.34
10688;BME280;5392;42.688;23.298;2022-08-11T12:39:59;57317.41;;;-144.48;38.10
10688;BME280;5392;42.688;23.298;2022-08-11T12:43:08;57246.44;;;-144.48;40.16
10688;BME280;5392;42.688;23.298;2022-08-11T12:46:18;57254.78;;;-144.48;39.12
10688;BME280;5392;42.688;23.298;2022-08-11T12:48:48;57300.72;;;-144.48;40.30
10688;BME280;5392;42.688;23.298;2022-08-11T12:51:36;57300.72;;;-144.48;45.55
10688;BME280;5392;42.688;23.298;2022-08-11T12:57:30;57275.66;;;-144.48;51.66
10688;BME280;5392;42.688;23.298;2022-08-11T13:00:17;57317.41;;;-144.48;50.66
10688;BME280;5392;42.688;23.298;2022-08-11T13:03:06;57300.72;;;-144.48;50.41
10688;BME280;5392;42.688;23.298;2022-08-11T13:05:59;57281.94;;;-144.48;50.75
10688;BME280;5392;42.688;23.298;2022-08-11T13:08:32;57284.00;;;-144.48;51.39
10688;BME280;5392;42.688;23.298;2022-08-11T13:10:59;57300.72;;;-144.48;52.82
10688;BME280;5392;42.688;23.298;2022-08-11T13:13:48;57296.53;;;-144.48;51.24
10688;BME280;5392;42.688;23.298;2022-08-11T13:16:32;57271.50;;;-144.48;49.11
10688;BME280;5392;42.688;23.298;2022-08-11T13:19:20;57296.53;;;-144.48;48.60
10688;BME280;5392;42.688;23.298;2022-08-11T13:21:48;57286.09;;;-144.48;49.15
10688;BME280;5392;42.688;23.298;2022-08-11T13:24:16;57273.56;;;-144.48;47.43
10688;BME280;5392;42.688;23.298;2022-08-11T13:26:44;57267.31;;;-144.48;45.46
10688;BME280;5392;42.688;23.298;2022-08-11T13:29:26;57284.00;;;-144.48;43.91
10688;BME280;5392;42.688;23.298;2022-08-11T13:31:56;57252.72;;;-144.48;43.12
10688;BME280;5392;42.688;23.298;2022-08-11T13:34:28;57263.16;;;-144.48;43.57
10688;BME280;5392;42.688;23.298;2022-08-11T13:37:01;57267.31;;;-144.48;42.60
10688;BME280;5392;42.688;23.298;2022-08-11T13:39:32;57242.28;;;-144.48;41.06
10688;BME280;5392;42.688;23.298;2022-08-11T13:42:01;57269.41;;;-144.48;41.49
10688;BME280;5392;42.688;23.298;2022-08-11T13:44:31;57229.75;;;-144.48;41.23
10688;BME280;5392;42.688;23.298;2022-08-11T13:47:01;57269.41;;;-144.48;40.40
10688;BME280;5392;42.688;23.298;2022-08-11T13:49:31;57256.88;;;-144.48;40.06
10688;BME280;5392;42.688;23.298;2022-08-11T13:51:59;57277.75;;;-144.48;39.63
10688;BME280;5392;42.688;23.298;2022-08-11T13:54:30;57269.41;;;-144.48;40.10
10688;BME280;5392;42.688;23.298;2022-08-11T13:57:02;57269.41;;;-144.48;38.79
10688;BME280;5392;42.688;23.298;2022-08-11T13:59:35;57288.19;;;-144.48;38.46
10688;BME280;5392;42.688;23.298;2022-08-11T14:02:20;57275.66;;;-144.48;37.54
10688;BME280;5392;42.688;23.298;2022-08-11T14:05:04;57217.22;;;-144.48;37.35
10688;BME280;5392;42.688;23.298;2022-08-11T14:07:43;57261.06;;;-144.48;37.53
10688;BME280;5392;42.688;23.298;2022-08-11T14:10:12;57306.97;;;-144.48;37.07
10688;BME280;5392;42.688;23.298;2022-08-11T14:12:46;57298.63;;;-144.48;37.12
10688;BME280;5392;42.688;23.298;2022-08-11T14:15:40;57269.41;;;-144.48;37.16
10688;BME280;5392;42.688;23.298;2022-08-11T14:18:13;57256.88;;;-144.48;36.83
10688;BME280;5392;42.688;23.298;2022-08-11T14:20:43;57242.28;;;-144.48;36.43
10688;BME280;5392;42.688;23.298;2022-08-11T14:23:54;57267.31;;;-144.48;36.94
10688;BME280;5392;42.688;23.298;2022-08-11T14:26:28;57256.88;;;-144.48;36.40
10688;BME280;5392;42.688;23.298;2022-08-11T14:29:11;57267.31;;;-144.48;36.23
10688;BME280;5392;42.688;23.298;2022-08-11T14:31:43;57277.75;;;-144.48;35.89
10688;BME280;5392;42.688;23.298;2022-08-11T14:34:11;57306.97;;;-144.48;37.81
10688;BME280;5392;42.688;23.298;2022-08-11T14:36:44;57279.84;;;-144.48;37.54
10688;BME280;5392;42.688;23.298;2022-08-11T14:39:14;57261.06;;;-144.48;38.03
10688;BME280;5392;42.688;23.298;2022-08-11T14:41:46;57248.53;;;-144.48;38.12
10688;BME280;5392;42.688;23.298;2022-08-11T14:44:42;57306.97;;;-144.48;38.36
10688;BME280;5392;42.688;23.298;2022-08-11T14:47:30;57246.44;;;-144.48;40.17
10688;BME280;5392;42.688;23.298;2022-08-11T14:49:58;57309.06;;;-144.48;41.46
10688;BME280;5392;42.688;23.298;2022-08-11T14:52:38;57252.72;;;-144.48;40.84
10688;BME280;5392;42.688;23.298;2022-08-11T14:55:09;57281.94;;;-144.48;41.18
10688;BME280;5392;42.688;23.298;2022-08-11T14:57:55;57294.44;;;-144.48;40.58
10688;BME280;5392;42.688;23.298;2022-08-11T15:00:23;57258.97;;;-144.48;39.97
10688;BME280;5392;42.688;23.298;2022-08-11T15:02:50;57302.81;;;-144.48;39.24
10688;BME280;5392;42.688;23.298;2022-08-11T15:08:05;57258.97;;;-144.48;38.70
10688;BME280;5392;42.688;23.298;2022-08-11T15:10:33;57256.88;;;-144.48;39.67
10688;BME280;5392;42.688;23.298;2022-08-11T15:13:00;57292.38;;;-144.48;40.16
10688;BME280;5392;42.688;23.298;2022-08-11T15:15:28;57263.16;;;-144.48;39.96
10688;BME280;5392;42.688;23.298;2022-08-11T15:18:16;57294.44;;;-144.48;40.79
10688;BME280;5392;42.688;23.298;2022-08-11T15:20:44;57267.31;;;-144.48;41.48
10688;BME280;5392;42.688;23.298;2022-08-11T15:23:30;57250.63;;;-144.48;43.25
10688;BME280;5392;42.688;23.298;2022-08-11T15:26:18;57281.94;;;-144.48;42.91
10688;BME280;5392;42.688;23.298;2022-08-11T15:29:09;57271.50;;;-144.48;43.21
10688;BME280;5392;42.688;23.298;2022-08-11T15:31:58;57269.41;;;-144.48;42.23
10688;BME280;5392;42.688;23.298;2022-08-11T15:34:57;57296.53;;;-144.48;42.15
10688;BME280;5392;42.688;23.298;2022-08-11T15:37:44;57275.66;;;-144.48;40.36
10688;BME280;5392;42.688;23.298;2022-08-11T15:40:33;57286.09;;;-144.48;40.66
10688;BME280;5392;42.688;23.298;2022-08-11T15:43:38;57281.94;;;-144.48;41.45
10688;BME280;5392;42.688;23.298;2022-08-11T15:46:36;57267.31;;;-144.48;41.78
10688;BME280;5392;42.688;23.298;2022-08-11T15:49:32;57271.50;;;-144.48;41.40
10688;BME280;5392;42.688;23.298;2022-08-11T15:52:28;57256.88;;;-144.48;41.85
10688;BME280;5392;42.688;23.298;2022-08-11T15:54:58;57261.06;;;-144.48;42.07
10688;BME280;5392;42.688;23.298;2022-08-11T15:57:38;57288.19;;;-144.48;41.91
10688;BME280;5392;42.688;23.298;2022-08-11T16:00:24;57292.38;;;-144.48;40.88
10688;BME280;5392;42.688;23.298;2022-08-11T16:03:12;57267.31;;;-144.48;40.27
10688;BME280;5392;42.688;23.298;2022-08-11T16:06:18;57254.78;;;-144.48;41.31
10688;BME280;5392;42.688;23.298;2022-08-11T16:08:49;57256.88;;;-144.48;40.38
10688;BME280;5392;42.688;23.298;2022-08-11T16:11:17;57275.66;;;-144.48;39.30
10688;BME280;5392;42.688;23.298;2022-08-11T16:13:45;57261.06;;;-144.48;39.71
10688;BME280;5392;42.688;23.298;2022-08-11T16:16:12;57240.19;;;-144.48;39.57
10688;BME280;5392;42.688;23.298;2022-08-11T16:18:52;57300.72;;;-144.48;39.66
10688;BME280;5392;42.688;23.298;2022-08-11T16:21:33;57311.16;;;-144.48;40.06
10688;BME280;5392;42.688;23.298;2022-08-11T16:24:12;57248.53;;;-144.48;39.81
10688;BME280;5392;42.688;23.298;2022-08-11T16:27:00;57286.09;;;-144.48;39.72
10688;BME280;5392;42.688;23.298;2022-08-11T16:29:42;57271.50;;;-144.48;39.73
10688;BME280;5392;42.688;23.298;2022-08-11T16:32:19;57271.50;;;-144.48;39.65
10688;BME280;5392;42.688;23.298;2022-08-11T16:35:00;57273.56;;;-144.48;39.90
10688;BME280;5392;42.688;23.298;2022-08-11T16:37:46;57281.94;;;-144.48;40.39
10688;BME280;5392;42.688;23.298;2022-08-11T16:40:32;57292.38;;;-144.48;40.07
10688;BME280;5392;42.688;23.298;2022-08-11T16:43:02;57267.31;;;-144.48;40.39
10688;BME280;5392;42.688;23.298;2022-08-11T16:45:50;57244.34;;;-144.48;40.84
10688;BME280;5392;42.688;23.298;2022-08-11T16:48:41;57265.22;;;-144.48;40.53
10688;BME280;5392;42.688;23.298;2022-08-11T16:51:11;57273.56;;;-144.48;40.41
10688;BME280;5392;42.688;23.298;2022-08-11T16:53:42;57265.22;;;-144.48;40.38
10688;BME280;5392;42.688;23.298;2022-08-11T16:56:38;57281.94;;;-144.48;40.82
10688;BME280;5392;42.688;23.298;2022-08-11T16:59:17;57240.19;;;-144.48;40.95
10688;BME280;5392;42.688;23.298;2022-08-11T17:01:58;57265.22;;;-144.48;41.48
10688;BME280;5392;42.688;23.298;2022-08-11T17:04:51;57242.28;;;-144.48;41.37
10688;BME280;5392;42.688;23.298;2022-08-11T17:07:40;57279.84;;;-144.48;41.21
10688;BME280;5392;42.688;23.298;2022-08-11T17:10:32;57250.63;;;-144.48;41.55
10688;BME280;5392;42.688;23.298;2022-08-11T17:13:32;57248.53;;;-144.48;41.82
10688;BME280;5392;42.688;23.298;2022-08-11T17:16:03;57265.22;;;-144.48;41.92
10688;BME280;5392;42.688;23.298;2022-08-11T17:21:32;57311.16;;;-144.48;42.66
10688;BME280;5392;42.688;23.298;2022-08-11T17:24:07;57286.09;;;-144.48;42.69
10688;BME280;5392;42.688;23.298;2022-08-11T17:26:46;57273.56;;;-144.48;42.29
10688;BME280;5392;42.688;23.298;2022-08-11T17:29:25;57271.50;;;-144.48;42.80
10688;BME280;5392;42.688;23.298;2022-08-11T17:31:53;57319.50;;;-144.48;42.72
10688;BME280;5392;42.688;23.298;2022-08-11T17:34:42;57292.38;;;-144.48;42.86
10688;BME280;5392;42.688;23.298;2022-08-11T17:37:32;57317.41;;;-144.48;43.17
10688;BME280;5392;42.688;23.298;2022-08-11T17:40:02;57273.56;;;-144.48;43.57